Time;durP1;ratioP1;P1;durP2;ratioP2;P2;SDS_P1;SDS_P2;PMS_P1;PMS_P2;Temp;Humidity;BMP_temperature;BMP_pressure;BME280_temperature;BME280_humidity;BME280_pressure;Samples;Min_cycle;Max_cycle;Signal;HPM_P1;HPM_P2
2023/03/12 00:02:23;;;;;;;;;;;2.60;99.90;;;;;;4948751;28;20408;-72
2023/03/12 00:04:50;;;;;;;;;;;2.60;99.90;;;;;;4950018;28;19930;-72
2023/03/12 00:07:17;;;;;;;;;;;2.60;99.90;;;;;;4952808;28;20419;-72
2023/03/12 00:09:45;;;;;;;;;;;2.50;99.90;;;;;;4949397;28;19958;-72
2023/03/12 00:12:12;;;;;;;;;;;2.50;99.90;;;;;;4951078;28;20285;-72
2023/03/12 00:14:39;;;;;;;;;;;2.50;99.90;;;;;;4950466;28;19926;-72
2023/03/12 00:17:06;;;;;;;;;;;2.50;99.90;;;;;;4948763;28;19990;-73
2023/03/12 00:19:32;;;;;;;;;;;2.50;99.90;;;;;;4951027;28;19937;-73
2023/03/12 00:21:59;;;;;;;;;;;2.50;99.90;;;;;;4946083;28;19927;-72
2023/03/12 00:24:26;;;;;;;;;;;2.50;99.90;;;;;;4962733;28;20025;-72
2023/03/12 00:26:54;;;;;;;;;;;2.50;99.90;;;;;;4946983;28;19934;-73
2023/03/12 00:29:21;;;;;;;;;;;2.40;99.90;;;;;;4964057;28;20021;-72
2023/03/12 00:31:48;;;;;;;;;;;2.40;99.90;;;;;;4945976;28;20026;-72
2023/03/12 00:34:14;;;;;;;;;;;2.40;99.90;;;;;;4963520;28;20017;-72
2023/03/12 00:36:41;;;;;;;;;;;2.40;99.90;;;;;;4961308;28;20392;-72
2023/03/12 00:39:08;;;;;;;;;;;2.40;99.90;;;;;;4949589;28;19930;-72
2023/03/12 00:41:35;;;;;;;;;;;2.40;99.90;;;;;;4961644;28;19973;-72
2023/03/12 00:44:03;;;;;;;;;;;2.40;99.90;;;;;;4963143;28;19926;-72
2023/03/12 00:46:30;;;;;;;;;;;2.40;99.90;;;;;;4957749;28;20211;-72
2023/03/12 00:48:56;;;;;;;;;;;2.40;99.90;;;;;;4964748;28;19978;-72
2023/03/12 00:51:23;;;;;;;;;;;2.40;99.90;;;;;;4948177;28;20463;-72
2023/03/12 00:53:50;;;;;;;;;;;2.40;99.90;;;;;;4944292;28;19957;-72
2023/03/12 00:56:17;;;;;;;;;;;2.30;99.90;;;;;;4963484;28;19949;-72
2023/03/12 00:58:45;;;;;;;;;;;2.30;99.90;;;;;;4949640;28;20348;-72
2023/03/12 01:01:13;;;;;;;;;;;2.30;99.90;;;;;;4948425;28;19926;-72
2023/03/12 01:03:40;;;;;;;;;;;2.30;99.90;;;;;;4957990;28;20387;-73
2023/03/12 01:06:07;;;;;;;;;;;2.30;99.90;;;;;;4948284;28;19974;-72
2023/03/12 01:08:34;;;;;;;;;;;2.30;99.90;;;;;;4949923;28;19930;-72
2023/03/12 01:11:00;;;;;;;;;;;2.30;99.90;;;;;;4946204;28;19926;-72
2023/03/12 01:13:27;;;;;;;;;;;2.30;99.90;;;;;;4950310;28;19929;-72
2023/03/12 01:15:54;;;;;;;;;;;2.20;99.90;;;;;;4948889;28;19984;-72
2023/03/12 01:18:23;;;;;;;;;;;2.20;99.90;;;;;;4947745;28;19926;-72
2023/03/12 01:20:49;;;;;;;;;;;2.20;99.90;;;;;;4947246;28;20348;-72
2023/03/12 01:23:16;;;;;;;;;;;2.20;99.90;;;;;;4965513;28;19981;-72
2023/03/12 01:25:43;;;;;;;;;;;2.20;99.90;;;;;;4944320;28;19938;-73
2023/03/12 01:28:10;;;;;;;;;;;2.20;99.90;;;;;;4949718;28;19958;-73
2023/03/12 01:30:37;;;;;;;;;;;2.20;99.90;;;;;;4960912;28;19986;-72
2023/03/12 01:33:04;;;;;;;;;;;2.20;99.90;;;;;;4983411;28;19934;-73
2023/03/12 01:35:35;;;;;;;;;;;2.20;99.90;;;;;;4955463;28;19926;-72
2023/03/12 01:38:01;;;;;;;;;;;2.20;99.90;;;;;;4949873;28;20490;-73
2023/03/12 01:40:28;;;;;;;;;;;2.10;99.90;;;;;;4950918;28;19926;-72
2023/03/12 01:42:57;;;;;;;;;;;2.10;99.90;;;;;;4963278;28;19927;-72
2023/03/12 01:45:43;;;;;;;;;;;2.10;99.90;;;;;;4966944;28;19935;-72
2023/03/12 01:48:10;;;;;;;;;;;2.10;99.90;;;;;;4964927;28;19934;-72
2023/03/12 01:50:38;;;;;;;;;;;2.10;99.90;;;;;;4962408;28;19933;-72
2023/03/12 01:53:05;;;;;;;;;;;2.10;99.90;;;;;;4946882;28;19927;-72
2023/03/12 01:55:32;;;;;;;;;;;2.10;99.90;;;;;;4951279;28;20017;-72
2023/03/12 01:58:01;;;;;;;;;;;2.10;99.90;;;;;;4949830;28;19930;-72
2023/03/12 02:00:28;;;;;;;;;;;2.10;99.90;;;;;;4964262;28;19928;-73
2023/03/12 02:02:58;;;;;;;;;;;2.10;99.90;;;;;;4946633;28;20332;-72
2023/03/12 02:05:27;;;;;;;;;;;2.10;99.90;;;;;;4965016;28;19974;-72
2023/03/12 02:07:56;;;;;;;;;;;2.00;99.90;;;;;;4946439;28;20569;-72
2023/03/12 02:10:23;;;;;;;;;;;2.00;99.90;;;;;;4961852;28;19927;-72
2023/03/12 02:12:50;;;;;;;;;;;2.00;99.90;;;;;;4949300;28;19934;-72
2023/03/12 02:15:17;;;;;;;;;;;2.00;99.90;;;;;;4947681;28;19931;-72
2023/03/12 02:17:44;;;;;;;;;;;2.00;99.90;;;;;;4944404;28;20483;-72
2023/03/12 02:20:15;;;;;;;;;;;2.00;99.90;;;;;;4946266;28;21384;-73
2023/03/12 02:22:44;;;;;;;;;;;2.00;99.90;;;;;;4962416;28;20802;-72
2023/03/12 02:25:29;;;;;;;;;;;2.00;99.90;;;;;;4963633;28;19969;-72
2023/03/12 02:27:59;;;;;;;;;;;1.90;99.90;;;;;;4959791;28;19926;-72
2023/03/12 02:30:27;;;;;;;;;;;1.90;99.90;;;;;;4944488;28;19973;-72
2023/03/12 02:32:54;;;;;;;;;;;1.90;99.90;;;;;;4947264;28;20308;-72
2023/03/12 02:35:21;;;;;;;;;;;1.90;99.90;;;;;;4942840;28;19965;-73
2023/03/12 02:37:49;;;;;;;;;;;1.90;99.90;;;;;;4948165;28;19958;-73
2023/03/12 02:40:18;;;;;;;;;;;1.90;99.90;;;;;;4948711;28;19930;-72
2023/03/12 02:42:45;;;;;;;;;;;1.90;99.90;;;;;;4941613;28;19927;-73
2023/03/12 02:45:14;;;;;;;;;;;1.90;99.90;;;;;;4958754;28;20017;-74
2023/03/12 02:47:40;;;;;;;;;;;1.90;99.90;;;;;;4947632;28;19953;-72
2023/03/12 02:50:08;;;;;;;;;;;1.90;99.90;;;;;;4948665;28;19961;-72
2023/03/12 02:52:36;;;;;;;;;;;1.90;99.90;;;;;;4962758;28;20020;-73
2023/03/12 02:55:03;;;;;;;;;;;1.90;99.90;;;;;;4945393;28;19935;-73
2023/03/12 02:57:30;;;;;;;;;;;1.90;99.90;;;;;;4941907;28;19937;-73
2023/03/12 02:59:57;;;;;;;;;;;1.90;99.90;;;;;;4949923;28;20348;-72
2023/03/12 03:02:25;;;;;;;;;;;1.90;99.90;;;;;;4960137;28;20411;-73
2023/03/12 03:04:53;;;;;;;;;;;1.90;99.90;;;;;;4962509;28;19974;-73
2023/03/12 03:07:20;;;;;;;;;;;1.90;99.90;;;;;;4960968;28;19937;-72
2023/03/12 03:09:46;;;;;;;;;;;1.90;99.90;;;;;;4959790;28;20459;-72
2023/03/12 03:12:13;;;;;;;;;;;1.90;99.90;;;;;;4964460;28;19927;-74
2023/03/12 03:14:41;;;;;;;;;;;1.90;99.90;;;;;;4961799;28;19934;-72
2023/03/12 03:17:08;;;;;;;;;;;1.90;99.90;;;;;;4943454;28;19997;-72
2023/03/12 03:19:36;;;;;;;;;;;1.80;99.90;;;;;;4962889;28;19962;-72
2023/03/12 03:22:05;;;;;;;;;;;1.90;99.90;;;;;;4959960;28;19978;-73
2023/03/12 03:24:32;;;;;;;;;;;1.80;99.90;;;;;;4956260;28;19926;-72
2023/03/12 03:26:58;;;;;;;;;;;1.90;99.90;;;;;;4945001;28;19989;-72
2023/03/12 03:29:25;;;;;;;;;;;1.80;99.90;;;;;;4949432;28;19927;-72
2023/03/12 03:31:52;;;;;;;;;;;1.80;99.90;;;;;;4962440;28;19966;-72
2023/03/12 03:34:19;;;;;;;;;;;1.80;99.90;;;;;;4945305;28;19934;-72
2023/03/12 03:36:47;;;;;;;;;;;1.80;99.90;;;;;;4960531;28;19931;-72
2023/03/12 03:39:16;;;;;;;;;;;1.80;99.90;;;;;;4957771;28;19934;-72
2023/03/12 03:41:45;;;;;;;;;;;1.80;99.90;;;;;;4965815;28;20025;-73
2023/03/12 03:44:12;;;;;;;;;;;1.80;99.90;;;;;;4970712;28;20344;-73
2023/03/12 03:46:39;;;;;;;;;;;1.80;99.90;;;;;;4967916;28;20045;-72
2023/03/12 03:49:09;;;;;;;;;;;1.80;99.90;;;;;;4965202;28;20348;-72
2023/03/12 03:51:40;;;;;;;;;;;1.80;99.90;;;;;;4967941;28;19962;-72
2023/03/12 03:54:11;;;;;;;;;;;1.80;99.90;;;;;;4951032;28;19933;-72
2023/03/12 03:56:39;;;;;;;;;;;1.80;99.90;;;;;;4951176;28;19937;-72
2023/03/12 03:59:06;;;;;;;;;;;1.80;99.90;;;;;;4965046;28;19999;-71
2023/03/12 04:01:36;;;;;;;;;;;1.80;99.90;;;;;;4964114;28;19931;-72
2023/03/12 04:04:03;;;;;;;;;;;1.80;99.90;;;;;;4951710;28;19942;-72
2023/03/12 04:06:32;;;;;;;;;;;1.80;99.90;;;;;;4964144;28;21710;-72
2023/03/12 04:08:59;;;;;;;;;;;1.80;99.90;;;;;;4946665;28;20013;-72
2023/03/12 04:11:28;;;;;;;;;;;1.80;99.90;;;;;;4966522;28;19927;-72
2023/03/12 04:13:57;;;;;;;;;;;1.80;99.90;;;;;;4964735;28;20413;-72
2023/03/12 04:16:26;;;;;;;;;;;1.80;99.90;;;;;;4962533;28;19946;-72
2023/03/12 04:18:54;;;;;;;;;;;1.80;99.90;;;;;;4964750;28;20397;-72
2023/03/12 04:21:22;;;;;;;;;;;1.80;99.90;;;;;;4963187;28;20440;-72
2023/03/12 04:23:50;;;;;;;;;;;1.80;99.90;;;;;;4959090;28;19933;-72
2023/03/12 04:26:19;;;;;;;;;;;1.80;99.90;;;;;;4964272;28;19926;-73
2023/03/12 04:28:47;;;;;;;;;;;1.80;99.90;;;;;;4964160;28;19949;-72
2023/03/12 04:31:14;;;;;;;;;;;1.80;99.90;;;;;;4948688;28;19966;-72
2023/03/12 04:33:46;;;;;;;;;;;1.80;99.90;;;;;;4960011;28;19931;-72
2023/03/12 04:36:15;;;;;;;;;;;1.80;99.90;;;;;;4945947;28;20341;-72
2023/03/12 04:38:44;;;;;;;;;;;1.80;99.90;;;;;;4945709;28;19933;-73
2023/03/12 04:41:12;;;;;;;;;;;1.80;99.90;;;;;;4961010;28;20013;-72
2023/03/12 04:43:44;;;;;;;;;;;1.80;99.90;;;;;;4947980;28;20384;-72
2023/03/12 04:46:14;;;;;;;;;;;1.80;99.90;;;;;;4964654;28;20377;-72
2023/03/12 04:48:42;;;;;;;;;;;1.80;99.90;;;;;;4965182;28;19930;-72
2023/03/12 04:51:09;;;;;;;;;;;1.80;99.90;;;;;;4940260;28;20356;-72
2023/03/12 04:53:36;;;;;;;;;;;1.80;99.90;;;;;;4964261;28;19930;-72
2023/03/12 04:56:03;;;;;;;;;;;1.70;99.90;;;;;;4962107;28;20392;-73
2023/03/12 04:58:32;;;;;;;;;;;1.70;99.90;;;;;;4959042;28;20030;-72
2023/03/12 05:00:59;;;;;;;;;;;1.70;99.90;;;;;;4948213;28;20032;-73
2023/03/12 05:03:27;;;;;;;;;;;1.80;99.90;;;;;;4949787;28;19949;-72
2023/03/12 05:05:54;;;;;;;;;;;1.80;99.90;;;;;;4978302;28;19969;-73
2023/03/12 05:08:21;;;;;;;;;;;1.80;99.90;;;;;;4967010;28;19988;-73
2023/03/12 05:10:48;;;;;;;;;;;1.80;99.90;;;;;;4974919;28;20205;-72
2023/03/12 05:13:18;;;;;;;;;;;1.80;99.90;;;;;;4963231;28;19930;-72
2023/03/12 05:15:46;;;;;;;;;;;1.80;99.90;;;;;;4961773;28;20421;-73
2023/03/12 05:18:13;;;;;;;;;;;1.80;99.90;;;;;;4947740;28;19934;-72
2023/03/12 05:20:41;;;;;;;;;;;1.80;99.90;;;;;;4948142;28;19927;-73
2023/03/12 05:23:08;;;;;;;;;;;1.80;99.90;;;;;;4963674;28;19926;-72
2023/03/12 05:25:38;;;;;;;;;;;1.80;99.90;;;;;;4939407;28;19935;-72
2023/03/12 05:28:04;;;;;;;;;;;1.80;99.90;;;;;;4962136;28;19986;-72
2023/03/12 05:30:32;;;;;;;;;;;1.70;99.90;;;;;;4960546;28;19990;-72
2023/03/12 05:32:59;;;;;;;;;;;1.80;99.90;;;;;;4963772;28;20376;-72
2023/03/12 05:35:26;;;;;;;;;;;1.80;99.90;;;;;;4961312;28;19926;-72
2023/03/12 05:37:54;;;;;;;;;;;1.80;99.90;;;;;;4964330;28;19937;-72
2023/03/12 05:40:21;;;;;;;;;;;1.80;99.90;;;;;;4960253;28;19966;-72
2023/03/12 05:42:48;;;;;;;;;;;1.80;99.90;;;;;;4944819;28;20425;-72
2023/03/12 05:45:14;;;;;;;;;;;1.80;99.90;;;;;;4949878;28;19926;-72
2023/03/12 05:47:46;;;;;;;;;;;1.80;99.90;;;;;;4964698;28;19945;-72
2023/03/12 05:50:15;;;;;;;;;;;1.80;99.90;;;;;;4966762;28;19982;-72
2023/03/12 05:52:42;;;;;;;;;;;1.80;99.90;;;;;;4963014;28;19975;-72
2023/03/12 05:55:11;;;;;;;;;;;1.80;99.90;;;;;;4962929;28;20357;-72
2023/03/12 05:57:37;;;;;;;;;;;1.80;99.90;;;;;;4968416;28;19966;-72
2023/03/12 06:00:08;;;;;;;;;;;1.80;99.90;;;;;;4959876;28;20326;-72
2023/03/12 06:02:41;;;;;;;;;;;1.80;99.90;;;;;;4948971;28;20568;-73
2023/03/12 06:05:09;;;;;;;;;;;1.80;99.90;;;;;;4964656;28;19931;-72
2023/03/12 06:07:36;;;;;;;;;;;1.80;99.90;;;;;;4953038;28;20028;-72
2023/03/12 06:10:03;;;;;;;;;;;1.80;99.90;;;;;;4961772;28;19934;-72
2023/03/12 06:12:32;;;;;;;;;;;1.80;99.90;;;;;;4962746;28;19927;-72
2023/03/12 06:14:58;;;;;;;;;;;1.80;99.90;;;;;;4965572;28;19958;-72
2023/03/12 06:17:28;;;;;;;;;;;1.80;99.90;;;;;;4958764;28;19926;-72
2023/03/12 06:19:55;;;;;;;;;;;1.80;99.90;;;;;;4941943;28;19930;-72
2023/03/12 06:22:22;;;;;;;;;;;1.80;99.90;;;;;;4944442;28;19937;-72
2023/03/12 06:24:49;;;;;;;;;;;1.80;99.90;;;;;;4944137;28;19926;-72
2023/03/12 06:27:17;;;;;;;;;;;1.80;99.90;;;;;;4959034;28;19938;-72
2023/03/12 06:29:46;;;;;;;;;;;1.80;99.90;;;;;;4950203;28;19927;-73
2023/03/12 06:32:13;;;;;;;;;;;1.80;99.90;;;;;;4945546;28;19930;-72
2023/03/12 06:34:40;;;;;;;;;;;1.80;99.90;;;;;;4958460;28;20064;-72
2023/03/12 06:37:06;;;;;;;;;;;1.80;99.90;;;;;;4948202;28;22185;-72
2023/03/12 06:39:33;;;;;;;;;;;1.80;99.90;;;;;;4947245;28;19933;-73
2023/03/12 06:42:00;;;;;;;;;;;1.80;99.90;;;;;;4940124;28;19927;-72
2023/03/12 06:44:27;;;;;;;;;;;1.80;99.90;;;;;;4942598;28;19961;-72
2023/03/12 06:46:55;;;;;;;;;;;1.80;99.90;;;;;;4943630;23;20221;-74
2023/03/12 06:49:22;;;;;;;;;;;1.80;99.90;;;;;;4958121;28;19930;-74
2023/03/12 06:51:49;;;;;;;;;;;1.80;99.90;;;;;;4955365;28;19930;-75
2023/03/12 06:54:16;;;;;;;;;;;1.80;99.90;;;;;;4957614;28;19926;-73
2023/03/12 06:56:43;;;;;;;;;;;1.80;99.90;;;;;;4953835;28;20029;-76
2023/03/12 06:59:09;;;;;;;;;;;1.80;99.90;;;;;;4963245;28;19926;-75
2023/03/12 07:01:36;;;;;;;;;;;1.80;99.90;;;;;;4959633;28;19934;-74
2023/03/12 07:04:04;;;;;;;;;;;1.90;99.90;;;;;;4956339;28;20064;-75
2023/03/12 07:06:31;;;;;;;;;;;1.90;99.90;;;;;;4958233;28;19926;-73
2023/03/12 07:08:58;;;;;;;;;;;1.90;99.90;;;;;;4953746;28;19937;-74
2023/03/12 07:11:25;;;;;;;;;;;1.90;99.90;;;;;;4963099;28;20344;-74
2023/03/12 07:13:52;;;;;;;;;;;1.90;99.90;;;;;;4974419;28;19949;-74
2023/03/12 07:16:18;;;;;;;;;;;1.90;99.90;;;;;;4960884;28;19930;-75
2023/03/12 07:18:45;;;;;;;;;;;1.90;99.90;;;;;;4967009;28;19941;-74
2023/03/12 07:21:15;;;;;;;;;;;1.90;99.90;;;;;;4962680;28;20290;-75
2023/03/12 07:23:42;;;;;;;;;;;1.90;99.90;;;;;;4963394;28;20045;-74
2023/03/12 07:26:09;;;;;;;;;;;1.90;99.90;;;;;;4959717;28;20013;-73
2023/03/12 07:28:35;;;;;;;;;;;1.90;99.90;;;;;;4965519;28;20072;-75
2023/03/12 07:31:03;;;;;;;;;;;1.90;99.90;;;;;;4958277;28;19926;-74
2023/03/12 07:33:29;;;;;;;;;;;1.90;99.90;;;;;;4965817;28;20033;-76
2023/03/12 07:35:56;;;;;;;;;;;1.90;99.90;;;;;;4959949;28;20238;-74
2023/03/12 07:38:25;;;;;;;;;;;1.90;99.90;;;;;;4955736;28;20075;-73
2023/03/12 07:40:52;;;;;;;;;;;1.90;99.90;;;;;;4955729;28;19954;-75
2023/03/12 07:43:19;;;;;;;;;;;1.90;99.90;;;;;;4964921;28;19965;-75
2023/03/12 07:45:47;;;;;;;;;;;1.90;99.90;;;;;;4982991;28;19926;-73
2023/03/12 07:48:14;;;;;;;;;;;1.90;99.90;;;;;;4963229;28;20017;-75
2023/03/12 07:50:41;;;;;;;;;;;2.00;99.90;;;;;;4963605;28;19976;-73
2023/03/12 07:53:08;;;;;;;;;;;2.00;99.90;;;;;;4973255;28;19961;-76
2023/03/12 07:55:36;;;;;;;;;;;2.00;99.90;;;;;;4968078;28;19981;-74
2023/03/12 07:58:03;;;;;;;;;;;2.00;99.90;;;;;;4964159;28;20009;-74
2023/03/12 08:00:30;;;;;;;;;;;2.00;99.90;;;;;;4967194;28;19926;-74
2023/03/12 08:02:57;;;;;;;;;;;2.00;99.90;;;;;;4961982;28;19926;-74
2023/03/12 08:05:24;;;;;;;;;;;2.00;99.90;;;;;;4965817;28;19930;-73
2023/03/12 08:07:51;;;;;;;;;;;2.00;99.90;;;;;;4981202;28;19926;-75
2023/03/12 08:10:18;;;;;;;;;;;2.00;99.90;;;;;;4962798;28;19930;-73
2023/03/12 08:12:46;;;;;;;;;;;2.00;99.90;;;;;;4965360;28;19965;-74
2023/03/12 08:15:14;;;;;;;;;;;2.00;99.90;;;;;;4963743;28;20005;-75
2023/03/12 08:17:40;;;;;;;;;;;2.10;99.90;;;;;;4961457;28;20316;-76
2023/03/12 08:20:08;;;;;;;;;;;2.10;99.90;;;;;;4960257;28;20025;-74
2023/03/12 08:22:35;;;;;;;;;;;2.10;99.90;;;;;;4958443;28;19942;-75
2023/03/12 08:25:02;;;;;;;;;;;2.10;99.90;;;;;;4955077;28;19961;-74
2023/03/12 08:27:29;;;;;;;;;;;2.10;99.90;;;;;;4958720;28;19938;-73
2023/03/12 08:29:58;;;;;;;;;;;2.10;99.90;;;;;;4960628;28;19926;-74
2023/03/12 08:32:25;;;;;;;;;;;2.10;99.90;;;;;;4961432;28;19930;-74
2023/03/12 08:34:51;;;;;;;;;;;2.10;99.90;;;;;;4964352;28;20393;-74
2023/03/12 08:37:18;;;;;;;;;;;2.10;99.90;;;;;;4961034;28;19930;-73
2023/03/12 08:39:45;;;;;;;;;;;2.10;99.90;;;;;;4965758;28;19993;-75
2023/03/12 08:42:12;;;;;;;;;;;2.10;99.90;;;;;;4964712;28;19954;-76
2023/03/12 08:44:38;;;;;;;;;;;2.10;99.90;;;;;;4980902;28;19926;-74
2023/03/12 08:47:07;;;;;;;;;;;2.10;99.90;;;;;;4982742;28;19969;-76
2023/03/12 08:49:33;;;;;;;;;;;2.20;99.90;;;;;;4967950;28;20021;-74
2023/03/12 08:52:00;;;;;;;;;;;2.20;99.90;;;;;;4967044;28;19929;-75
2023/03/12 08:54:27;;;;;;;;;;;2.20;99.90;;;;;;4960455;28;19947;-75
2023/03/12 08:56:57;;;;;;;;;;;2.20;99.90;;;;;;4959679;28;19996;-75
2023/03/12 08:59:24;;;;;;;;;;;2.20;99.90;;;;;;4962379;28;19926;-77
2023/03/12 09:01:50;;;;;;;;;;;2.20;99.90;;;;;;4968341;28;19949;-75
2023/03/12 09:04:19;;;;;;;;;;;2.20;99.90;;;;;;4964705;28;19981;-74
2023/03/12 09:06:45;;;;;;;;;;;2.30;99.90;;;;;;4965856;28;19934;-73
2023/03/12 09:09:12;;;;;;;;;;;2.30;99.90;;;;;;4967378;28;19973;-76
2023/03/12 09:11:39;;;;;;;;;;;2.30;99.90;;;;;;4969035;28;19997;-74
2023/03/12 09:14:07;;;;;;;;;;;2.30;99.90;;;;;;4981835;28;19930;-74
2023/03/12 09:16:34;;;;;;;;;;;2.60;99.90;;;;;;4960344;28;19981;-79
2023/03/12 09:19:00;;;;;;;;;;;2.80;99.90;;;;;;4963404;28;19934;-74
2023/03/12 09:21:29;;;;;;;;;;;2.80;99.90;;;;;;4963505;28;19930;-74
2023/03/12 09:23:56;;;;;;;;;;;2.70;99.90;;;;;;4978862;28;19936;-74
2023/03/12 09:26:23;;;;;;;;;;;2.70;99.90;;;;;;4966861;28;19957;-74
2023/03/12 09:28:50;;;;;;;;;;;2.70;99.90;;;;;;4967603;28;19934;-74
2023/03/12 09:31:17;;;;;;;;;;;2.70;99.90;;;;;;4961695;28;19988;-75
2023/03/12 09:33:43;;;;;;;;;;;2.60;99.90;;;;;;4959486;28;20009;-74
2023/03/12 09:36:10;;;;;;;;;;;2.70;99.90;;;;;;4966386;28;20381;-73
2023/03/12 09:38:38;;;;;;;;;;;2.70;99.90;;;;;;4962939;28;19940;-75
2023/03/12 09:41:06;;;;;;;;;;;2.70;99.90;;;;;;4973553;28;20445;-75
2023/03/12 09:43:36;;;;;;;;;;;2.80;99.90;;;;;;4980678;28;19973;-75
2023/03/12 09:46:04;;;;;;;;;;;2.80;99.90;;;;;;4966270;28;20083;-77
2023/03/12 09:48:32;;;;;;;;;;;2.80;99.90;;;;;;4965102;28;19958;-74
2023/03/12 09:51:02;;;;;;;;;;;2.80;99.90;;;;;;4962964;28;19949;-74
2023/03/12 09:53:31;;;;;;;;;;;2.80;99.90;;;;;;4963215;28;19982;-77
2023/03/12 09:56:02;;;;;;;;;;;2.80;99.90;;;;;;4966899;28;19926;-73
2023/03/12 09:58:30;;;;;;;;;;;2.90;99.90;;;;;;4963795;28;19926;-74
2023/03/12 10:01:00;;;;;;;;;;;2.90;99.90;;;;;;4963369;28;20944;-74
2023/03/12 10:03:33;;;;;;;;;;;3.00;99.90;;;;;;4971763;28;20417;-75
2023/03/12 10:06:06;;;;;;;;;;;3.10;99.90;;;;;;4964693;28;19941;-75
2023/03/12 10:08:38;;;;;;;;;;;3.20;99.90;;;;;;4959941;28;19972;-73
2023/03/12 10:11:15;;;;;;;;;;;3.20;99.90;;;;;;4965348;28;19931;-74
2023/03/12 10:13:57;;;;;;;;;;;3.20;99.90;;;;;;4966062;28;19926;-74
2023/03/12 10:16:30;;;;;;;;;;;3.20;99.90;;;;;;4958667;28;19926;-77
2023/03/12 10:19:05;;;;;;;;;;;3.20;99.90;;;;;;4961577;28;19957;-74
2023/03/12 10:21:36;;;;;;;;;;;3.30;99.90;;;;;;4964202;28;19926;-76
2023/03/12 10:24:08;;;;;;;;;;;3.30;99.90;;;;;;4973329;28;19981;-74
2023/03/12 10:26:38;;;;;;;;;;;3.30;99.90;;;;;;4960541;28;19926;-74
2023/03/12 10:29:10;;;;;;;;;;;3.40;99.90;;;;;;4958408;28;19934;-74
2023/03/12 10:31:41;;;;;;;;;;;3.40;99.90;;;;;;4961113;28;19926;-74
2023/03/12 10:34:14;;;;;;;;;;;3.40;99.90;;;;;;4960211;28;19926;-73
2023/03/12 10:36:41;;;;;;;;;;;3.50;99.90;;;;;;4956814;28;19941;-73
2023/03/12 10:39:13;;;;;;;;;;;3.50;99.90;;;;;;4958105;28;20420;-74
2023/03/12 10:41:42;;;;;;;;;;;3.50;99.90;;;;;;4956365;28;20351;-74
2023/03/12 10:44:09;;;;;;;;;;;3.60;99.90;;;;;;4962635;28;20017;-73
2023/03/12 10:46:45;;;;;;;;;;;3.60;99.90;;;;;;4958787;28;19978;-72
2023/03/12 10:49:32;;;;;;;;;;;3.70;99.90;;;;;;4956781;28;19933;-75
2023/03/12 10:52:00;;;;;;;;;;;3.70;99.90;;;;;;4959603;28;19958;-75
2023/03/12 10:54:28;;;;;;;;;;;3.70;99.90;;;;;;4963855;28;20435;-77
2023/03/12 10:56:57;;;;;;;;;;;3.70;99.90;;;;;;4956251;28;19929;-74
2023/03/12 10:59:27;;;;;;;;;;;3.80;99.90;;;;;;4965578;28;19926;-73
2023/03/12 11:01:53;;;;;;;;;;;3.80;99.90;;;;;;4959310;28;19930;-75
2023/03/12 11:04:23;;;;;;;;;;;3.90;99.90;;;;;;4980644;28;20336;-75
2023/03/12 11:07:04;;;;;;;;;;;3.90;99.90;;;;;;4953771;28;19968;-74
2023/03/12 11:09:31;;;;;;;;;;;3.90;99.90;;;;;;4963111;28;19930;-75
2023/03/12 11:12:00;;;;;;;;;;;4.00;99.90;;;;;;4962464;28;19936;-74
2023/03/12 11:14:27;;;;;;;;;;;4.10;99.90;;;;;;4960070;28;19933;-74
2023/03/12 11:16:55;;;;;;;;;;;4.10;99.90;;;;;;4959325;28;19926;-74
2023/03/12 11:19:29;;;;;;;;;;;4.20;99.90;;;;;;4961114;28;20036;-75
2023/03/12 11:21:57;;;;;;;;;;;4.20;99.90;;;;;;4967781;28;20020;-72
2023/03/12 11:24:24;;;;;;;;;;;4.20;99.90;;;;;;4952323;28;20466;-72
2023/03/12 11:26:51;;;;;;;;;;;4.40;99.90;;;;;;4963847;28;19973;-73
2023/03/12 11:29:24;;;;;;;;;;;4.40;99.90;;;;;;4976607;28;19927;-72
2023/03/12 11:31:56;;;;;;;;;;;4.40;99.90;;;;;;4960462;28;19930;-72
2023/03/12 11:34:26;;;;;;;;;;;4.50;99.90;;;;;;4958271;28;20457;-72
2023/03/12 11:36:59;;;;;;;;;;;4.40;99.90;;;;;;4958892;28;19933;-73
2023/03/12 11:39:31;;;;;;;;;;;4.40;99.90;;;;;;4958059;28;19949;-72
2023/03/12 11:42:03;;;;;;;;;;;4.50;99.90;;;;;;4948655;28;19945;-73
2023/03/12 11:44:37;;;;;;;;;;;4.60;99.90;;;;;;4960914;28;19926;-73
2023/03/12 11:47:11;;;;;;;;;;;4.60;99.90;;;;;;4976712;28;20485;-72
2023/03/12 11:49:45;;;;;;;;;;;4.70;99.90;;;;;;4961519;28;20066;-72
2023/03/12 11:52:16;;;;;;;;;;;4.80;99.90;;;;;;4959246;28;20360;-73
2023/03/12 11:54:53;;;;;;;;;;;5.10;99.90;;;;;;4954125;28;19934;-73
2023/03/12 11:57:27;;;;;;;;;;;5.10;99.90;;;;;;4958024;28;19930;-73
2023/03/12 12:00:05;;;;;;;;;;;5.10;99.90;;;;;;4958746;28;20025;-73
2023/03/12 12:02:58;;;;;;;;;;;5.10;99.90;;;;;;4961811;28;20311;-74
2023/03/12 12:05:31;;;;;;;;;;;5.10;99.90;;;;;;4940169;28;20354;-73
2023/03/12 12:08:15;;;;;;;;;;;5.10;99.90;;;;;;4959423;28;20708;-72
2023/03/12 12:10:48;;;;;;;;;;;5.10;99.90;;;;;;4959519;28;20025;-73
2023/03/12 12:13:17;;;;;;;;;;;5.20;99.90;;;;;;4960157;28;19930;-73
2023/03/12 12:15:50;;;;;;;;;;;5.20;99.90;;;;;;4975971;28;19927;-73
2023/03/12 12:18:28;;;;;;;;;;;5.30;99.90;;;;;;4961728;28;19974;-74
2023/03/12 12:20:58;;;;;;;;;;;5.30;99.90;;;;;;4950783;28;20102;-73
2023/03/12 12:23:31;;;;;;;;;;;5.40;99.90;;;;;;4966984;28;19965;-74
2023/03/12 12:26:04;;;;;;;;;;;5.40;99.90;;;;;;4973270;28;19935;-74
2023/03/12 12:28:52;;;;;;;;;;;5.40;99.90;;;;;;4965905;28;20009;-73
2023/03/12 12:31:28;;;;;;;;;;;5.40;99.90;;;;;;4963004;28;19938;-74
2023/03/12 12:34:02;;;;;;;;;;;5.40;99.90;;;;;;4965434;28;19930;-74
2023/03/12 12:36:31;;;;;;;;;;;5.50;99.90;;;;;;4962184;28;19953;-73
2023/03/12 12:39:00;;;;;;;;;;;5.50;99.90;;;;;;4953136;28;20032;-74
2023/03/12 12:41:28;;;;;;;;;;;5.50;99.90;;;;;;4959409;28;19937;-74
2023/03/12 12:43:57;;;;;;;;;;;5.60;99.90;;;;;;4953276;28;20451;-75
2023/03/12 12:46:28;;;;;;;;;;;5.60;99.90;;;;;;4962772;28;20021;-75
2023/03/12 12:48:55;;;;;;;;;;;5.70;99.90;;;;;;4961533;28;19934;-76
2023/03/12 12:51:24;;;;;;;;;;;5.80;99.90;;;;;;4961738;28;19926;-73
2023/03/12 12:53:53;;;;;;;;;;;5.90;99.90;;;;;;4958544;28;19926;-74
2023/03/12 12:56:22;;;;;;;;;;;5.90;99.90;;;;;;4964315;28;19934;-74
2023/03/12 12:58:56;;;;;;;;;;;6.00;99.90;;;;;;4949959;28;20396;-74
2023/03/12 13:01:23;;;;;;;;;;;6.10;99.90;;;;;;4954262;28;19926;-74
2023/03/12 13:03:51;;;;;;;;;;;6.10;99.90;;;;;;4967095;28;19930;-74
2023/03/12 13:06:18;;;;;;;;;;;6.20;99.90;;;;;;4963991;28;19926;-74
2023/03/12 13:09:01;;;;;;;;;;;6.20;99.90;;;;;;4964832;28;20445;-74
2023/03/12 13:11:40;;;;;;;;;;;6.30;99.90;;;;;;4959283;28;19933;-74
2023/03/12 13:14:20;;;;;;;;;;;6.40;99.90;;;;;;4970299;28;19926;-74
2023/03/12 13:16:47;;;;;;;;;;;6.40;99.90;;;;;;4965418;28;19973;-74
2023/03/12 13:19:35;;;;;;;;;;;6.50;99.90;;;;;;4979625;28;19938;-74
2023/03/12 13:22:11;;;;;;;;;;;6.50;99.90;;;;;;4959356;28;20367;-74
2023/03/12 13:24:42;;;;;;;;;;;6.50;99.90;;;;;;4968884;28;19926;-74
2023/03/12 13:27:14;;;;;;;;;;;6.60;99.90;;;;;;4970661;28;19938;-74
2023/03/12 13:29:41;;;;;;;;;;;6.60;99.90;;;;;;4968379;28;19930;-74
2023/03/12 13:32:09;;;;;;;;;;;6.70;99.90;;;;;;4959458;28;19992;-74
2023/03/12 13:34:45;;;;;;;;;;;6.60;99.90;;;;;;4964161;28;20020;-74
2023/03/12 13:37:20;;;;;;;;;;;6.70;99.90;;;;;;4964295;28;20017;-74
2023/03/12 13:39:46;;;;;;;;;;;6.70;99.90;;;;;;4966831;28;19933;-75
2023/03/12 13:42:27;;;;;;;;;;;6.80;99.90;;;;;;4966913;28;19933;-74
2023/03/12 13:44:54;;;;;;;;;;;6.80;99.90;;;;;;4969791;28;19926;-74
2023/03/12 13:47:22;;;;;;;;;;;6.90;99.90;;;;;;4963237;28;19973;-74
2023/03/12 13:49:53;;;;;;;;;;;6.90;99.90;;;;;;4968678;28;20022;-74
2023/03/12 13:52:23;;;;;;;;;;;6.90;99.90;;;;;;4961784;28;20323;-74
2023/03/12 13:54:57;;;;;;;;;;;7.00;99.90;;;;;;4959165;28;19926;-74
2023/03/12 13:57:26;;;;;;;;;;;7.00;99.90;;;;;;4979883;28;19932;-74
2023/03/12 13:59:53;;;;;;;;;;;7.00;99.90;;;;;;4964354;28;19933;-74
2023/03/12 14:02:23;;;;;;;;;;;7.10;99.90;;;;;;4961689;28;19934;-74
2023/03/12 14:04:50;;;;;;;;;;;7.10;99.90;;;;;;4959053;28;19970;-74
2023/03/12 14:07:39;;;;;;;;;;;7.20;99.90;;;;;;4968659;28;19961;-72
2023/03/12 14:10:13;;;;;;;;;;;7.20;99.90;;;;;;4952149;28;19977;-71
2023/03/12 14:12:44;;;;;;;;;;;7.20;99.90;;;;;;4965726;28;19934;-71
2023/03/12 14:15:18;;;;;;;;;;;7.20;99.90;;;;;;4968892;28;19965;-71
2023/03/12 14:17:45;;;;;;;;;;;7.30;99.90;;;;;;4961722;28;19973;-72
2023/03/12 14:20:14;;;;;;;;;;;7.40;99.90;;;;;;4963613;28;19931;-71
2023/03/12 14:22:44;;;;;;;;;;;7.50;99.90;;;;;;4974117;28;19973;-72
2023/03/12 14:25:13;;;;;;;;;;;7.50;99.90;;;;;;4960613;28;19946;-71
2023/03/12 14:27:40;;;;;;;;;;;7.50;99.90;;;;;;4960946;28;19941;-71
2023/03/12 14:30:11;;;;;;;;;;;7.50;99.90;;;;;;4950519;28;19934;-71
2023/03/12 14:32:38;;;;;;;;;;;7.50;99.90;;;;;;4967854;28;19966;-72
2023/03/12 14:35:13;;;;;;;;;;;7.50;99.90;;;;;;4964122;28;19926;-71
2023/03/12 14:37:43;;;;;;;;;;;7.60;99.90;;;;;;4967633;28;19937;-72
2023/03/12 14:40:20;;;;;;;;;;;7.70;99.90;;;;;;4965929;28;20033;-71
2023/03/12 14:42:46;;;;;;;;;;;7.70;99.90;;;;;;4967679;28;19966;-71